Time;durP1;ratioP1;P1;durP2;ratioP2;P2;SDS_P1;SDS_P2;PMS_P1;PMS_P2;Temp;Humidity;BMP_temperature;BMP_pressure;BME280_temperature;BME280_humidity;BME280_pressure;Samples;Min_cycle;Max_cycle;Signal;HPM_P1;HPM_P2
2022/10/01 00:01:09;;;;;;;22.27;11.93;;;8.40;70.50;;;;;;5105626;28;20038;-61
2022/10/01 00:03:36;;;;;;;22.45;11.93;;;8.40;70.60;;;;;;5084815;28;20036;-59
2022/10/01 00:06:16;;;;;;;18.92;11.75;;;8.40;70.50;;;;;;5087817;28;20119;-61
2022/10/01 00:08:45;;;;;;;25.85;11.70;;;8.40;70.70;;;;;;5085290;28;20154;-60
2022/10/01 00:11:20;;;;;;;21.67;11.63;;;8.50;70.70;;;;;;5090831;28;20031;-59
2022/10/01 00:13:46;;;;;;;21.88;11.98;;;8.50;70.80;;;;;;5085840;28;20112;-59
2022/10/01 00:16:19;;;;;;;21.20;12.05;;;8.50;70.70;;;;;;5103086;28;20097;-59
2022/10/01 00:18:46;;;;;;;19.42;11.73;;;8.50;71.00;;;;;;5085267;28;20029;-60
2022/10/01 00:21:21;;;;;;;17.58;10.90;;;8.50;70.80;;;;;;5107333;28;20024;-60
2022/10/01 00:23:56;;;;;;;19.48;12.35;;;8.60;71.10;;;;;;5085532;28;20025;-59
2022/10/01 00:26:26;;;;;;;21.10;10.88;;;8.60;71.20;;;;;;5067250;28;20372;-60
2022/10/01 00:29:01;;;;;;;16.77;10.75;;;8.70;71.10;;;;;;5086714;28;20028;-59
2022/10/01 00:31:27;;;;;;;18.13;11.10;;;8.70;71.40;;;;;;5107622;28;20085;-60
2022/10/01 00:33:57;;;;;;;16.10;10.43;;;8.70;71.00;;;;;;5085432;28;20028;-59
2022/10/01 00:36:24;;;;;;;20.23;11.27;;;8.70;71.10;;;;;;5106000;28;20043;-59
2022/10/01 00:38:49;;;;;;;15.13;10.15;;;8.70;71.10;;;;;;5086593;28;20080;-59
2022/10/01 00:41:16;;;;;;;16.55;10.68;;;8.80;71.00;;;;;;5105087;28;20043;-59
2022/10/01 00:43:54;;;;;;;16.13;10.25;;;8.80;70.90;;;;;;5086415;28;20036;-60
2022/10/01 00:46:37;;;;;;;19.08;11.10;;;8.80;71.10;;;;;;5074102;28;20063;-60
2022/10/01 00:49:09;;;;;;;14.82;9.82;;;8.80;70.80;;;;;;5039856;28;20100;-60
2022/10/01 00:51:49;;;;;;;15.05;10.18;;;8.90;70.90;;;;;;5066795;28;20053;-59
2022/10/01 00:54:33;;;;;;;17.52;9.35;;;8.80;71.00;;;;;;5066856;28;20099;-60
2022/10/01 00:57:00;;;;;;;11.15;6.95;;;8.90;71.10;;;;;;5071632;28;20503;-60
2022/10/01 00:59:28;;;;;;;14.23;10.00;;;8.90;70.60;;;;;;5107098;28;20028;-59
2022/10/01 01:01:53;;;;;;;17.00;10.48;;;8.90;70.60;;;;;;5088133;28;20046;-59
2022/10/01 01:04:19;;;;;;;15.15;10.02;;;8.90;70.50;;;;;;5106951;28;20020;-61
2022/10/01 01:06:56;;;;;;;16.65;10.05;;;8.90;70.60;;;;;;5087278;28;20048;-62
2022/10/01 01:09:34;;;;;;;16.60;10.25;;;8.90;70.70;;;;;;5106382;28;20012;-61
2022/10/01 01:12:34;;;;;;;14.60;9.95;;;8.90;70.70;;;;;;5068178;28;20037;-61
2022/10/01 01:15:15;;;;;;;17.33;10.80;;;8.90;70.90;;;;;;5106741;28;20493;-61
2022/10/01 01:17:49;;;;;;;16.10;10.27;;;8.90;70.50;;;;;;5077075;28;20028;-60
2022/10/01 01:20:54;;;;;;;19.13;10.18;;;8.90;70.40;;;;;;5077265;28;20080;-59
2022/10/01 01:23:47;;;;;;;17.03;10.00;;;8.90;70.80;;;;;;5084593;28;20051;-62
2022/10/01 01:26:34;;;;;;;17.92;10.25;;;8.90;70.50;;;;;;5066511;28;20029;-60
2022/10/01 01:29:08;;;;;;;15.70;10.02;;;8.80;70.60;;;;;;5084497;28;20044;-60
2022/10/01 01:31:45;;;;;;;16.80;11.25;;;8.80;70.90;;;;;;5066312;28;20025;-61
2022/10/01 01:34:14;;;;;;;16.83;10.27;;;8.80;70.40;;;;;;5085946;28;20036;-59
2022/10/01 01:36:45;;;;;;;16.52;10.63;;;8.80;70.20;;;;;;5105945;28;20020;-60
2022/10/01 01:39:14;;;;;;;17.40;10.60;;;8.70;71.10;;;;;;5066764;28;20120;-61
2022/10/01 01:41:48;;;;;;;18.63;11.27;;;8.70;70.30;;;;;;5106000;28;20052;-61
2022/10/01 01:44:18;;;;;;;19.77;11.13;;;8.80;70.40;;;;;;5065962;28;20025;-59
2022/10/01 01:46:47;;;;;;;17.98;11.15;;;8.70;70.30;;;;;;5105947;28;20032;-59
2022/10/01 01:49:16;;;;;;;19.55;11.32;;;8.70;70.20;;;;;;5087384;28;20028;-61
2022/10/01 01:52:20;;;;;;;22.08;11.10;;;8.70;70.20;;;;;;5085734;28;20399;-59
2022/10/01 01:54:48;;;;;;;18.85;10.70;;;8.70;70.60;;;;;;5043379;28;20048;-59
2022/10/01 01:57:17;;;;;;;20.42;11.75;;;8.70;70.10;;;;;;5082223;28;20067;-60
2022/10/01 01:59:43;;;;;;;17.73;11.38;;;8.60;70.00;;;;;;5063790;28;20518;-60
2022/10/01 02:02:15;;;;;;;15.93;10.40;;;8.60;70.20;;;;;;5064836;28;20025;-62
2022/10/01 02:04:53;;;;;;;14.35;9.70;;;8.60;70.20;;;;;;5066833;28;20029;-60
2022/10/01 02:07:25;;;;;;;16.17;10.52;;;8.60;70.20;;;;;;5050043;28;20036;-58
2022/10/01 02:10:15;;;;;;;17.35;10.60;;;8.60;70.30;;;;;;5083561;28;20032;-59
2022/10/01 02:13:07;;;;;;;17.52;10.18;;;8.50;70.50;;;;;;5069453;28;20078;-60
2022/10/01 02:15:52;;;;;;;19.27;11.00;;;8.50;70.30;;;;;;5038213;28;20458;-61
2022/10/01 02:18:29;;;;;;;19.60;11.43;;;8.50;70.00;;;;;;5054500;28;20044;-59
2022/10/01 02:21:03;;;;;;;19.70;11.50;;;8.50;69.90;;;;;;5067347;28;20084;-60
2022/10/01 02:23:35;;;;;;;16.20;10.98;;;8.50;69.70;;;;;;5046400;28;20047;-58
2022/10/01 02:26:09;;;;;;;17.80;10.15;;;8.50;69.80;;;;;;5063172;28;20629;-59
2022/10/01 02:28:38;;;;;;;14.15;9.02;;;8.40;69.90;;;;;;5082699;28;20021;-60
2022/10/01 02:31:05;;;;;;;16.50;9.23;;;8.40;69.90;;;;;;5109742;28;20054;-60
2022/10/01 02:33:35;;;;;;;14.45;9.13;;;8.40;70.00;;;;;;5088752;28;20036;-59
2022/10/01 02:36:05;;;;;;;15.27;8.73;;;8.40;70.00;;;;;;5109692;28;20024;-59
2022/10/01 02:38:34;;;;;;;13.70;8.82;;;8.30;70.00;;;;;;5094360;28;20035;-59
2022/10/01 02:41:05;;;;;;;12.02;8.48;;;8.30;69.90;;;;;;5107979;28;20032;-60
2022/10/01 02:43:37;;;;;;;11.75;8.25;;;8.30;69.90;;;;;;5081054;28;20028;-60
2022/10/01 02:46:20;;;;;;;15.60;8.20;;;8.30;70.70;;;;;;5082466;28;20029;-59
2022/10/01 02:48:47;;;;;;;14.88;8.85;;;8.30;70.20;;;;;;5083564;28;20021;-60
2022/10/01 02:51:39;;;;;;;10.55;7.80;;;8.30;70.00;;;;;;5103086;28;20044;-59
2022/10/01 02:54:28;;;;;;;13.50;8.48;;;8.20;70.20;;;;;;5085368;28;20037;-60
2022/10/01 02:59:38;;;;;;;12.93;8.45;;;8.20;69.90;;;;;;5068961;28;20063;-61
2022/10/01 03:02:06;;;;;;;12.50;8.25;;;8.20;70.10;;;;;;5107310;28;20047;-61
2022/10/01 03:04:31;;;;;;;13.13;8.25;;;8.20;70.20;;;;;;5109431;28;20032;-58
2022/10/01 03:07:02;;;;;;;14.32;8.85;;;8.10;70.30;;;;;;5089135;28;20056;-59
2022/10/01 03:09:31;;;;;;;14.75;9.15;;;8.10;70.40;;;;;;5068091;28;20037;-60
2022/10/01 03:11:58;;;;;;;14.45;8.52;;;8.20;70.50;;;;;;5108692;28;20032;-59
2022/10/01 03:14:24;;;;;;;13.40;8.80;;;8.20;70.60;;;;;;5088262;28;20024;-61
2022/10/01 03:16:53;;;;;;;16.20;9.10;;;8.20;70.70;;;;;;5108442;28;20028;-60
2022/10/01 03:19:20;;;;;;;13.70;9.07;;;8.20;70.90;;;;;;5088195;28;20021;-61
2022/10/01 03:21:46;;;;;;;11.98;7.95;;;8.20;70.70;;;;;;5108078;28;20374;-60
2022/10/01 03:24:12;;;;;;;15.80;9.73;;;8.20;70.70;;;;;;5088544;28;20048;-60
2022/10/01 03:26:37;;;;;;;15.98;9.50;;;8.20;70.80;;;;;;5093826;28;20047;-59
2022/10/01 03:29:03;;;;;;;20.48;10.32;;;8.20;70.80;;;;;;5101056;28;20055;-61
2022/10/01 03:31:29;;;;;;;18.23;11.82;;;8.30;70.90;;;;;;5116938;28;20043;-59
2022/10/01 03:33:56;;;;;;;16.13;10.65;;;8.30;71.00;;;;;;5092006;28;20028;-60
2022/10/01 03:36:22;;;;;;;18.90;10.65;;;8.30;71.10;;;;;;5106740;28;20036;-60
2022/10/01 03:38:49;;;;;;;18.67;11.73;;;8.30;71.20;;;;;;5086626;28;20036;-59
2022/10/01 03:41:15;;;;;;;21.98;12.20;;;8.30;71.40;;;;;;5104605;28;20044;-60
2022/10/01 03:43:40;;;;;;;20.90;13.60;;;8.40;71.50;;;;;;5094536;28;20033;-60
2022/10/01 03:46:06;;;;;;;26.05;15.52;;;8.40;71.50;;;;;;5107746;28;20020;-59
2022/10/01 03:48:31;;;;;;;30.30;15.57;;;8.40;71.70;;;;;;5098371;28;20024;-60
2022/10/01 03:50:58;;;;;;;19.75;12.40;;;8.40;71.80;;;;;;5095735;28;20048;-59
2022/10/01 03:53:26;;;;;;;22.40;13.13;;;8.40;71.90;;;;;;5085729;28;20048;-61
2022/10/01 03:55:52;;;;;;;22.05;13.15;;;8.40;71.90;;;;;;5107717;28;20020;-61
2022/10/01 03:58:18;;;;;;;23.95;13.57;;;8.40;72.60;;;;;;5087463;28;20658;-59
2022/10/01 04:00:47;;;;;;;26.75;14.93;;;8.50;71.90;;;;;;5107249;28;20096;-59
2022/10/01 04:03:14;;;;;;;22.27;14.13;;;8.50;71.80;;;;;;5087306;28;20024;-61
2022/10/01 04:05:41;;;;;;;22.15;12.35;;;8.50;71.60;;;;;;5107266;28;20066;-59
2022/10/01 04:08:07;;;;;;;23.15;12.85;;;8.50;71.60;;;;;;5087088;28;20031;-60
2022/10/01 04:10:33;;;;;;;20.90;11.98;;;8.50;71.60;;;;;;5105964;28;20046;-60
2022/10/01 04:12:59;;;;;;;19.73;11.70;;;8.50;71.60;;;;;;5092853;28;20032;-60
2022/10/01 04:15:25;;;;;;;18.02;10.40;;;8.50;71.60;;;;;;5108164;28;20055;-62
2022/10/01 04:17:50;;;;;;;18.23;11.15;;;8.50;71.40;;;;;;5087140;28;20055;-60
2022/10/01 04:20:17;;;;;;;21.77;12.07;;;8.50;71.40;;;;;;5090457;28;20376;-60
2022/10/01 04:22:43;;;;;;;23.02;12.43;;;8.50;71.50;;;;;;5102854;28;20080;-60
2022/10/01 04:25:09;;;;;;;19.98;12.05;;;8.50;71.40;;;;;;5087502;28;20029;-60
2022/10/01 04:27:57;;;;;;;17.10;10.93;;;8.50;71.50;;;;;;5098476;28;20474;-61
2022/10/01 04:30:23;;;;;;;17.42;10.35;;;8.50;72.20;;;;;;5067573;28;20028;-59
2022/10/01 04:32:49;;;;;;;22.05;10.90;;;8.50;71.70;;;;;;5101669;28;20029;-61
2022/10/01 04:35:15;;;;;;;18.38;10.73;;;8.50;71.80;;;;;;5105170;28;20084;-59
2022/10/01 04:37:40;;;;;;;17.02;11.40;;;8.50;71.90;;;;;;5089274;28;20025;-59
2022/10/01 04:40:06;;;;;;;17.67;10.90;;;8.50;72.10;;;;;;5107562;28;20028;-59
2022/10/01 04:42:32;;;;;;;22.30;10.93;;;8.50;72.00;;;;;;5085577;28;20020;-59
2022/10/01 04:44:58;;;;;;;20.25;10.98;;;8.50;72.00;;;;;;5106189;28;20028;-59
2022/10/01 04:47:23;;;;;;;16.05;10.77;;;8.50;72.00;;;;;;5087375;28;20040;-60
2022/10/01 04:49:49;;;;;;;19.25;11.77;;;8.50;72.20;;;;;;5102386;28;20040;-60
2022/10/01 04:52:15;;;;;;;19.75;11.07;;;8.60;72.50;;;;;;5086741;28;20040;-61
2022/10/01 04:54:40;;;;;;;19.75;11.30;;;8.60;72.70;;;;;;5086599;28;20024;-60
2022/10/01 04:57:06;;;;;;;18.33;11.43;;;8.60;73.00;;;;;;5105335;28;20127;-59
2022/10/01 04:59:32;;;;;;;17.65;11.48;;;8.60;73.20;;;;;;5086064;28;20036;-59
2022/10/01 05:01:58;;;;;;;15.80;10.48;;;8.70;73.40;;;;;;5106159;28;20036;-61
2022/10/01 05:04:23;;;;;;;15.30;9.65;;;8.70;73.50;;;;;;5086353;28;20020;-60
2022/10/01 05:06:49;;;;;;;16.20;10.35;;;8.80;73.80;;;;;;5106210;28;20023;-60
2022/10/01 05:09:15;;;;;;;16.40;9.45;;;8.80;73.70;;;;;;5085083;28;20035;-59
2022/10/01 05:11:41;;;;;;;14.93;8.88;;;8.80;73.60;;;;;;5099185;28;20033;-61
2022/10/01 05:14:07;;;;;;;15.68;9.75;;;8.90;73.50;;;;;;5091495;28;20028;-59
2022/10/01 05:16:33;;;;;;;15.20;8.85;;;8.90;73.30;;;;;;5093284;28;20426;-61
2022/10/01 05:18:58;;;;;;;13.82;9.98;;;8.90;73.30;;;;;;5092307;28;20039;-59
2022/10/01 05:21:24;;;;;;;14.27;9.75;;;9.00;73.20;;;;;;5105996;28;20080;-61
2022/10/01 05:23:49;;;;;;;14.30;9.18;;;9.00;73.20;;;;;;5085807;28;20056;-62
2022/10/01 05:26:15;;;;;;;12.45;9.13;;;9.00;73.10;;;;;;5105806;28;20046;-60
2022/10/01 05:28:43;;;;;;;11.70;8.43;;;9.00;73.10;;;;;;5086095;28;20029;-61
2022/10/01 05:31:10;;;;;;;12.48;8.73;;;9.10;73.00;;;;;;5104663;28;20032;-60
2022/10/01 05:33:36;;;;;;;13.80;9.45;;;9.10;72.90;;;;;;5084538;28;20421;-59
2022/10/01 05:36:05;;;;;;;15.75;10.32;;;9.10;72.90;;;;;;5115064;28;20023;-60
2022/10/01 05:38:35;;;;;;;14.65;10.20;;;9.10;73.00;;;;;;5104576;28;20038;-60
2022/10/01 05:41:04;;;;;;;13.05;9.15;;;9.10;73.00;;;;;;5073685;28;20033;-60
2022/10/01 05:43:30;;;;;;;16.60;9.77;;;9.10;72.90;;;;;;5105214;28;20031;-59
2022/10/01 05:46:00;;;;;;;15.20;10.43;;;9.10;72.80;;;;;;5106217;28;20020;-58
2022/10/01 05:48:26;;;;;;;13.38;10.07;;;9.10;72.90;;;;;;5097755;28;20035;-60
2022/10/01 05:50:53;;;;;;;16.00;9.23;;;9.10;72.90;;;;;;5096952;28;20068;-59
2022/10/01 05:53:19;;;;;;;16.52;9.60;;;9.20;73.00;;;;;;5085245;28;20410;-60
2022/10/01 05:55:45;;;;;;;14.93;9.80;;;9.20;73.10;;;;;;5105401;28;20058;-59
2022/10/01 05:58:13;;;;;;;12.35;8.95;;;9.20;73.20;;;;;;5088662;28;20028;-59
2022/10/01 06:00:41;;;;;;;13.50;9.05;;;9.20;73.40;;;;;;5104616;28;20478;-60
2022/10/01 06:03:07;;;;;;;11.68;8.32;;;9.20;73.50;;;;;;5088987;28;20047;-61
2022/10/01 06:05:34;;;;;;;12.88;9.05;;;9.20;73.40;;;;;;5106085;28;20050;-59
2022/10/01 06:08:03;;;;;;;12.50;8.38;;;9.30;73.50;;;;;;5085158;28;20417;-60
2022/10/01 06:10:29;;;;;;;12.75;9.07;;;9.30;73.60;;;;;;5100648;28;20020;-60
2022/10/01 06:13:03;;;;;;;11.60;8.82;;;9.30;73.60;;;;;;5104081;28;20035;-60
2022/10/01 06:15:33;;;;;;;11.43;8.68;;;9.40;74.10;;;;;;5105855;28;20032;-60
2022/10/01 06:18:07;;;;;;;13.38;8.10;;;9.40;73.80;;;;;;5085256;28;20029;-59
2022/10/01 06:20:33;;;;;;;12.13;8.48;;;9.50;74.00;;;;;;5065779;28;20033;-60
2022/10/01 06:22:59;;;;;;;12.00;8.27;;;9.50;73.80;;;;;;5099992;28;20036;-59
2022/10/01 06:25:27;;;;;;;9.80;7.57;;;9.60;74.00;;;;;;5104027;28;20042;-59
2022/10/01 06:27:56;;;;;;;10.23;7.72;;;9.60;74.10;;;;;;5085752;28;20040;-59
2022/10/01 06:30:25;;;;;;;13.05;8.43;;;9.70;74.10;;;;;;5105819;28;20027;-61
2022/10/01 06:33:02;;;;;;;16.02;8.30;;;9.70;74.20;;;;;;5084922;28;20060;-59
2022/10/01 06:35:28;;;;;;;12.73;7.57;;;9.80;74.30;;;;;;5085672;28;20365;-59
2022/10/01 06:37:54;;;;;;;12.43;7.70;;;9.90;74.50;;;;;;5102059;28;20043;-61
2022/10/01 06:40:20;;;;;;;10.73;8.18;;;9.90;74.50;;;;;;5105050;28;20390;-59
2022/10/01 06:42:47;;;;;;;11.98;8.20;;;10.00;74.60;;;;;;5085855;28;20043;-59
2022/10/01 06:45:14;;;;;;;10.48;8.57;;;10.00;74.60;;;;;;5065323;28;20032;-59
2022/10/01 06:47:40;;;;;;;11.50;8.27;;;10.10;74.60;;;;;;5104949;28;20024;-60
2022/10/01 06:50:06;;;;;;;11.48;8.27;;;10.20;74.50;;;;;;5089016;28;20067;-59
2022/10/01 06:52:50;;;;;;;14.38;9.75;;;10.20;74.40;;;;;;5106008;28;20039;-58
2022/10/01 06:55:16;;;;;;;14.85;10.65;;;10.30;74.40;;;;;;5065559;28;20047;-59
2022/10/01 06:57:43;;;;;;;17.55;10.95;;;10.40;74.40;;;;;;5137267;28;20032;-59
2022/10/01 07:00:10;;;;;;;18.85;11.15;;;10.40;74.40;;;;;;5083406;28;20096;-59
2022/10/01 07:02:36;;;;;;;19.67;11.63;;;10.40;74.40;;;;;;5105377;28;20088;-59
2022/10/01 07:05:01;;;;;;;19.90;12.38;;;10.50;74.50;;;;;;5084977;28;20039;-60
2022/10/01 07:07:34;;;;;;;20.77;13.15;;;10.50;74.50;;;;;;5107426;28;20432;-60
2022/10/01 07:10:00;;;;;;;23.08;13.27;;;10.60;74.60;;;;;;5084582;28;20059;-59
2022/10/01 07:12:26;;;;;;;22.70;14.50;;;10.60;74.50;;;;;;5094935;28;20059;-60
2022/10/01 07:14:52;;;;;;;23.40;14.98;;;10.70;74.60;;;;;;5090949;28;20024;-59
2022/10/01 07:17:18;;;;;;;19.38;14.10;;;10.80;74.60;;;;;;5108501;28;20032;-60
2022/10/01 07:19:44;;;;;;;15.02;11.23;;;10.80;74.60;;;;;;5086767;28;20499;-61
2022/10/01 07:22:09;;;;;;;14.05;9.13;;;10.90;74.60;;;;;;5108321;28;20024;-59
2022/10/01 07:24:35;;;;;;;12.50;8.95;;;10.90;74.70;;;;;;5088336;28;20054;-60
2022/10/01 07:27:01;;;;;;;14.90;9.40;;;10.90;74.90;;;;;;5108028;28;20068;-60
2022/10/01 07:29:26;;;;;;;11.90;8.95;;;11.00;74.80;;;;;;5087011;28;20029;-61
2022/10/01 07:31:59;;;;;;;10.82;7.95;;;11.10;74.70;;;;;;5107930;28;20113;-59
2022/10/01 07:34:27;;;;;;;15.63;8.13;;;11.10;75.30;;;;;;5087479;28;20029;-60
2022/10/01 07:36:53;;;;;;;11.73;8.27;;;11.10;74.90;;;;;;5108294;28;20024;-60
2022/10/01 07:39:19;;;;;;;10.70;8.27;;;11.20;74.70;;;;;;5099134;28;20032;-60
2022/10/01 07:41:45;;;;;;;9.50;7.82;;;11.20;74.80;;;;;;5088736;28;20032;-59
2022/10/01 07:44:12;;;;;;;10.45;9.10;;;11.30;75.00;;;;;;5096899;28;20055;-60
2022/10/01 07:46:38;;;;;;;10.98;8.85;;;11.30;75.10;;;;;;5114087;28;20092;-59
2022/10/01 07:49:05;;;;;;;12.07;7.82;;;11.40;75.20;;;;;;5102673;28;20031;-58
2022/10/01 07:51:32;;;;;;;10.73;8.73;;;11.50;74.80;;;;;;5095729;28;20036;-59
2022/10/01 07:53:58;;;;;;;12.27;8.70;;;11.50;75.10;;;;;;5100088;28;20029;-59
2022/10/01 07:56:25;;;;;;;14.35;8.60;;;11.60;75.10;;;;;;5107688;28;20433;-59
2022/10/01 07:58:55;;;;;;;10.65;7.97;;;11.60;75.00;;;;;;5086055;28;20056;-60
2022/10/01 08:01:20;;;;;;;11.10;8.90;;;11.70;75.10;;;;;;5107542;28;20032;-60
2022/10/01 08:03:51;;;;;;;11.13;8.18;;;11.80;75.80;;;;;;5093414;28;20032;-60
2022/10/01 08:06:18;;;;;;;12.32;9.07;;;11.80;74.90;;;;;;5098209;28;20028;-61
2022/10/01 08:08:44;;;;;;;11.27;8.50;;;11.80;74.80;;;;;;5091891;28;20028;-59
2022/10/01 08:11:12;;;;;;;10.05;7.65;;;11.90;74.60;;;;;;5105809;28;20051;-58
2022/10/01 08:13:38;;;;;;;13.93;7.57;;;11.90;74.60;;;;;;5091156;28;20087;-60
2022/10/01 08:16:06;;;;;;;10.45;7.60;;;12.00;74.70;;;;;;5108115;28;20028;-58
2022/10/01 08:18:33;;;;;;;9.20;6.82;;;12.00;74.30;;;;;;5086606;28;20028;-59
2022/10/01 08:21:00;;;;;;;10.25;7.68;;;12.10;74.20;;;;;;5107004;28;20031;-59
2022/10/01 08:23:27;;;;;;;11.90;7.55;;;12.10;74.30;;;;;;5086852;28;20016;-59
2022/10/01 08:26:02;;;;;;;10.70;6.63;;;12.10;74.20;;;;;;5106799;28;20512;-59
2022/10/01 08:28:28;;;;;;;7.68;6.00;;;12.10;74.30;;;;;;5085107;28;20029;-59
2022/10/01 08:30:55;;;;;;;9.38;6.45;;;12.20;74.20;;;;;;5087468;28;20121;-60
2022/10/01 08:33:21;;;;;;;7.72;6.03;;;12.20;74.10;;;;;;5104248;28;20044;-59
2022/10/01 08:35:47;;;;;;;12.00;6.68;;;12.20;74.00;;;;;;5085913;28;20043;-62
2022/10/01 08:38:13;;;;;;;8.20;5.95;;;12.20;73.80;;;;;;5100979;28;20024;-60
2022/10/01 08:41:06;;;;;;;7.60;5.72;;;12.30;73.80;;;;;;5105135;28;20060;-60
2022/10/01 08:43:37;;;;;;;10.85;6.00;;;12.30;74.30;;;;;;5068752;28;20039;-60
2022/10/01 08:46:10;;;;;;;7.40;4.93;;;12.30;74.10;;;;;;5067421;28;20393;-59
2022/10/01 08:49:06;;;;;;;8.00;4.93;;;12.30;73.90;;;;;;5071640;28;20459;-60
2022/10/01 08:51:37;;;;;;;7.07;4.28;;;12.30;74.10;;;;;;5106092;28;20040;-60
2022/10/01 08:54:41;;;;;;;7.13;4.47;;;12.40;73.70;;;;;;5078205;28;20059;-59
2022/10/01 08:57:27;;;;;;;6.88;4.55;;;12.40;73.80;;;;;;5107312;28;20344;-59
2022/10/01 08:59:56;;;;;;;6.70;4.50;;;12.40;74.00;;;;;;5079526;28;20107;-60
2022/10/01 09:02:29;;;;;;;6.90;4.20;;;12.40;73.40;;;;;;5106882;28;20140;-59
2022/10/01 09:05:00;;;;;;;4.75;3.47;;;12.40;73.40;;;;;;5084345;28;20036;-59
2022/10/01 09:07:41;;;;;;;5.65;4.15;;;12.40;73.20;;;;;;5106389;28;20020;-58
2022/10/01 09:10:19;;;;;;;6.28;4.00;;;12.40;73.40;;;;;;5084938;28;20029;-58
2022/10/01 09:12:53;;;;;;;7.32;3.80;;;12.40;73.50;;;;;;5105097;28;20036;-58
2022/10/01 09:15:22;;;;;;;5.15;3.72;;;12.40;73.30;;;;;;5064225;28;20133;-60
2022/10/01 09:18:07;;;;;;;7.18;3.50;;;12.40;73.20;;;;;;5105530;28;20032;-60
2022/10/01 09:20:32;;;;;;;;;;;12.40;73.80;;;;;;5084557;28;20470;-58
2022/10/01 09:23:07;;;;;;;5.18;3.35;;;12.40;73.30;;;;;;5104524;28;19912;-61
2022/10/01 09:25:36;;;;;;;5.43;3.00;;;12.40;73.00;;;;;;5083933;28;20031;-59
2022/10/01 09:28:23;;;;;;;3.88;2.90;;;12.30;73.40;;;;;;5104630;28;20035;-58
2022/10/01 09:30:57;;;;;;;4.70;3.22;;;12.40;74.10;;;;;;5105685;28;20032;-59
2022/10/01 09:33:50;;;;;;;4.15;2.95;;;12.40;73.90;;;;;;5065387;28;20049;-58
2022/10/01 09:36:18;;;;;;;5.38;3.13;;;12.40;73.70;;;;;;5066283;28;20537;-58
2022/10/01 09:38:57;;;;;;;6.40;3.88;;;12.40;73.40;;;;;;5104753;28;20040;-58
2022/10/01 09:41:23;;;;;;;4.63;3.40;;;12.40;73.50;;;;;;5105264;28;20055;-58
2022/10/01 09:43:49;;;;;;;5.70;2.97;;;12.50;73.50;;;;;;5085596;28;20024;-59
2022/10/01 09:46:16;;;;;;;4.95;2.92;;;12.50;73.90;;;;;;5105854;28;20085;-60
2022/10/01 09:48:53;;;;;;;3.45;2.50;;;12.50;73.50;;;;;;5006401;28;21047;-58
2022/10/01 09:51:31;;;;;;;3.17;2.42;;;12.50;73.40;;;;;;5085932;28;20106;-59
2022/10/01 09:54:04;;;;;;;3.33;2.50;;;12.50;73.40;;;;;;5069243;28;20086;-59
2022/10/01 09:56:37;;;;;;;3.13;2.42;;;12.60;73.40;;;;;;5086357;28;20052;-60
2022/10/01 09:59:09;;;;;;;3.07;2.60;;;12.60;73.40;;;;;;5070057;28;20032;-59
2022/10/01 10:01:48;;;;;;;3.33;2.42;;;12.60;73.30;;;;;;5086068;28;20055;-59
2022/10/01 10:04:19;;;;;;;3.03;2.17;;;12.60;73.30;;;;;;5071359;28;20020;-58
2022/10/01 10:06:46;;;;;;;4.75;2.35;;;12.70;73.40;;;;;;5097533;28;20075;-59
2022/10/01 10:09:18;;;;;;;3.17;2.28;;;12.70;73.30;;;;;;5098383;28;20024;-59
2022/10/01 10:11:44;;;;;;;2.08;1.88;;;12.70;73.40;;;;;;5085772;28;20044;-58
2022/10/01 10:14:33;;;;;;;4.35;2.00;;;12.70;73.20;;;;;;5104692;28;20028;-59
2022/10/01 10:17:15;;;;;;;3.30;2.25;;;12.70;73.30;;;;;;5106212;28;20032;-59
2022/10/01 10:19:50;;;;;;;3.78;2.97;;;12.80;73.00;;;;;;5084963;28;20025;-59
2022/10/01 10:22:23;;;;;;;4.40;3.20;;;12.90;72.80;;;;;;5065759;28;20033;-59
2022/10/01 10:24:51;;;;;;;5.10;2.40;;;12.90;72.60;;;;;;5075634;28;20041;-60
2022/10/01 10:27:28;;;;;;;4.00;2.28;;;12.90;72.70;;;;;;5105632;28;20028;-59
2022/10/01 10:30:13;;;;;;;2.55;2.05;;;12.90;72.60;;;;;;5076282;28;20052;-59
2022/10/01 10:32:40;;;;;;;4.18;1.88;;;12.90;72.60;;;;;;5065653;28;20040;-60
2022/10/01 10:35:15;;;;;;;4.40;2.72;;;12.90;72.50;;;;;;5091304;28;20078;-58
2022/10/01 10:37:48;;;;;;;5.57;2.30;;;12.90;72.80;;;;;;5104285;28;20394;-60
2022/10/01 10:40:26;;;;;;;3.67;2.17;;;13.00;72.80;;;;;;5095968;28;20020;-59
2022/10/01 10:42:57;;;;;;;3.38;1.83;;;13.00;72.50;;;;;;5079099;28;20032;-58
2022/10/01 10:45:34;;;;;;;4.63;2.65;;;13.00;72.60;;;;;;5102481;28;20021;-58
2022/10/01 10:48:03;;;;;;;4.25;2.55;;;13.00;72.90;;;;;;5098598;28;20033;-59
2022/10/01 10:50:36;;;;;;;4.05;2.40;;;13.00;72.70;;;;;;5030109;28;20052;-59
2022/10/01 10:53:23;;;;;;;2.20;1.58;;;13.00;72.70;;;;;;5087937;28;20471;-59
2022/10/01 10:56:00;;;;;;;2.88;1.52;;;13.10;72.60;;;;;;5086717;28;20510;-59
2022/10/01 10:58:28;;;;;;;4.72;2.20;;;13.10;72.50;;;;;;5109277;28;20036;-58
2022/10/01 11:00:58;;;;;;;3.55;2.33;;;13.10;72.60;;;;;;5088172;28;20046;-60
2022/10/01 11:03:28;;;;;;;4.95;1.77;;;13.10;72.80;;;;;;5069209;28;20367;-59
2022/10/01 11:06:02;;;;;;;1.50;1.30;;;13.10;72.60;;;;;;5089113;28;20032;-58
2022/10/01 11:08:27;;;;;;;2.38;1.80;;;13.20;72.50;;;;;;5071025;28;20083;-59
2022/10/01 11:11:33;;;;;;;2.40;1.70;;;13.20;72.40;;;;;;5087902;28;20024;-59
2022/10/01 11:14:25;;;;;;;3.53;1.45;;;13.20;73.10;;;;;;5072666;28;20063;-61
2022/10/01 11:16:50;;;;;;;1.83;1.50;;;13.20;73.10;;;;;;5085546;28;20096;-59
2022/10/01 11:19:44;;;;;;;3.58;1.73;;;13.20;72.70;;;;;;5107758;28;20047;-59
2022/10/01 11:22:18;;;;;;;2.88;1.70;;;13.20;72.70;;;;;;5089151;28;20024;-59
2022/10/01 11:25:19;;;;;;;7.22;3.10;;;13.30;72.40;;;;;;5068002;28;20052;-59
2022/10/01 11:28:11;;;;;;;7.25;4.88;;;13.30;72.60;;;;;;5065260;28;20044;-60
2022/10/01 11:30:58;;;;;;;2.80;2.13;;;13.30;73.90;;;;;;5083272;28;20021;-59
2022/10/01 11:33:36;;;;;;;2.22;1.85;;;13.30;73.40;;;;;;5068135;28;20037;-58
2022/10/01 11:36:40;;;;;;;5.40;3.72;;;13.40;73.10;;;;;;5086290;28;20058;-59
2022/10/01 11:39:17;;;;;;;1.95;1.75;;;13.40;73.40;;;;;;5069937;28;20024;-59
2022/10/01 11:42:03;;;;;;;1.60;1.50;;;13.50;73.30;;;;;;5068382;28;20111;-58
2022/10/01 11:44:46;;;;;;;2.88;1.40;;;13.50;73.00;;;;;;5078426;28;20024;-59
2022/10/01 11:47:45;;;;;;;3.03;2.00;;;13.60;72.80;;;;;;5108698;28;20016;-61
2022/10/01 11:50:17;;;;;;;1.98;1.58;;;13.60;73.30;;;;;;5077797;28;20053;-60
2022/10/01 11:53:10;;;;;;;1.35;1.25;;;13.60;72.90;;;;;;5087630;28;20082;-59
2022/10/01 11:58:50;;;;;;;1.95;1.80;;;13.70;72.80;;;;;;5068123;28;20129;-58
2022/10/01 12:01:21;;;;;;;4.13;1.60;;;13.70;72.70;;;;;;5086946;28;20037;-59
2022/10/01 12:03:53;;;;;;;2.03;1.38;;;13.80;72.50;;;;;;5107698;28;20028;-59
2022/10/01 12:06:36;;;;;;;1.90;1.30;;;13.80;72.50;;;;;;5096440;28;20024;-59
2022/10/01 12:09:12;;;;;;;1.10;0.98;;;13.80;72.60;;;;;;5068142;28;20059;-58
2022/10/01 12:11:42;;;;;;;1.38;1.00;;;13.80;72.40;;;;;;5072513;28;20461;-58
2022/10/01 12:14:23;;;;;;;1.20;1.05;;;13.80;72.20;;;;;;5106764;28;20178;-58
2022/10/01 12:16:51;;;;;;;2.60;1.02;;;13.80;72.00;;;;;;5107962;28;20028;-58
2022/10/01 12:19:36;;;;;;;1.77;1.20;;;13.80;71.80;;;;;;5086778;28;20024;-58
2022/10/01 12:22:20;;;;;;;6.35;3.03;;;13.70;72.00;;;;;;5107765;28;20044;-59
2022/10/01 12:24:47;;;;;;;4.45;2.45;;;13.70;71.90;;;;;;5073741;28;20036;-59
2022/10/01 12:27:40;;;;;;;2.67;1.40;;;13.70;72.00;;;;;;5107433;28;20032;-60
2022/10/01 12:30:18;;;;;;;2.60;1.60;;;13.70;72.40;;;;;;5096717;28;20080;-60
2022/10/01 12:33:27;;;;;;;2.70;1.40;;;13.70;72.30;;;;;;5066029;28;20033;-59
2022/10/01 12:36:07;;;;;;;1.90;1.27;;;13.70;72.70;;;;;;5082022;28;20063;-61
2022/10/01 12:38:35;;;;;;;2.00;1.40;;;13.80;72.50;;;;;;5067232;28;20028;-59
2022/10/01 12:41:10;;;;;;;2.50;1.83;;;13.70;72.20;;;;;;5088434;28;20029;-58
2022/10/01 12:44:24;;;;;;;1.50;1.30;;;13.70;72.30;;;;;;5106915;28;20047;-59
2022/10/01 12:47:10;;;;;;;2.65;1.90;;;13.70;72.40;;;;;;5053853;28;20569;-58
2022/10/01 12:49:47;;;;;;;6.30;2.33;;;13.70;72.40;;;;;;5031351;28;20531;-58
2022/10/01 12:52:41;;;;;;;2.03;1.60;;;13.80;72.40;;;;;;5048028;28;20063;-59
2022/10/01 12:55:33;;;;;;;1.20;1.10;;;13.80;72.40;;;;;;4954925;28;20212;-59
2022/10/01 12:58:11;;;;;;;2.60;1.70;;;13.80;72.30;;;;;;4966225;29;20136;-61
2022/10/01 13:00:47;;;;;;;1.75;1.65;;;13.80;72.50;;;;;;4958644;29;20175;-58
2022/10/01 13:03:24;;;;;;;1.75;1.48;;;13.80;72.70;;;;;;4947076;29;20035;-61
2022/10/01 13:06:14;;;;;;;1.55;1.30;;;13.80;72.60;;;;;;4974114;28;20050;-58
2022/10/01 13:09:12;;;;;;;1.83;1.58;;;13.90;72.70;;;;;;4947263;29;20028;-58
2022/10/01 13:12:04;;;;;;;2.67;1.35;;;13.90;72.50;;;;;;4966185;29;20047;-59
2022/10/01 13:14:31;;;;;;;1.52;1.30;;;13.90;72.60;;;;;;4955615;28;20148;-59
2022/10/01 13:17:41;;;;;;;1.90;1.15;;;13.90;72.20;;;;;;4979742;28;20042;-60